Time;durP1;ratioP1;P1;durP2;ratioP2;P2;SDS_P1;SDS_P2;PMS_P1;PMS_P2;Temp;Humidity;BMP_temperature;BMP_pressure;BME280_temperature;BME280_humidity;BME280_pressure;Samples;Min_cycle;Max_cycle;Signal;HPM_P1;HPM_P2
2021/05/06 00:14:30;;;;;;;9.38;4.45;;;;;;;16.08;60.18;99432.84;5027627;28;20036;-22
2021/05/06 00:33:53;;;;;;;9.27;4.90;;;;;;;15.36;62.76;99431.97;5027470;28;20044;-21
2021/05/06 00:36:19;;;;;;;8.70;4.85;;;;;;;15.07;63.61;99430.53;5027472;28;20033;-20
2021/05/06 00:38:50;;;;;;;7.15;4.90;;;;;;;15.04;63.64;99422.22;5027811;28;20425;-21
2021/05/06 00:54:43;;;;;;;10.07;5.72;;;;;;;14.71;66.02;99435.00;5027066;28;20425;-22
2021/05/06 01:12:44;;;;;;;11.27;5.40;;;;;;;15.10;64.26;99456.09;5027308;28;20030;-22
2021/05/06 01:15:10;;;;;;;7.85;4.93;;;;;;;15.60;62.98;99478.75;5027143;28;20120;-20
2021/05/06 01:17:35;;;;;;;10.00;5.32;;;;;;;15.89;62.06;99466.72;5028018;28;20087;-22
2021/05/06 01:20:01;;;;;;;13.57;5.75;;;;;;;15.97;61.66;99474.25;5027500;28;20806;-22
2021/05/06 01:22:26;;;;;;;9.80;5.70;;;;;;;16.03;62.05;99473.19;5028882;28;20124;-22
2021/05/06 01:24:56;;;;;;;9.45;5.22;;;;;;;16.03;61.19;99473.97;5030966;28;20033;-22
2021/05/06 01:28:07;;;;;;;9.18;5.38;;;;;;;16.19;60.79;99484.75;5030756;28;20065;-22
2021/05/06 01:30:22;;;;;;;8.55;4.90;;;;;;;16.26;60.65;99479.88;5032740;28;20936;-22
2021/05/06 01:32:52;;;;;;;9.02;5.35;;;;;;;16.22;60.28;99460.81;5030799;28;20030;-22
2021/05/06 01:40:47;;;;;;;9.90;5.30;;;;;;;15.88;61.68;99486.66;5030959;28;20033;-22
2021/05/06 01:43:16;;;;;;;10.18;5.40;;;;;;;15.86;61.16;99481.53;5030234;28;20134;-22
2021/05/06 01:48:45;;;;;;;9.27;6.00;;;;;;;15.98;60.92;99498.19;5030577;28;20535;-22
2021/05/06 01:59:30;;;;;;;14.73;7.50;;;;;;;14.85;63.57;99508.59;5030366;28;20048;-23
2021/05/06 02:01:56;;;;;;;13.60;6.93;;;;;;;15.01;62.83;99479.13;5030260;28;20060;-21
2021/05/06 02:04:21;;;;;;;12.10;5.97;;;;;;;15.32;62.95;99489.97;5030005;28;20033;-22
2021/05/06 02:06:47;;;;;;;10.25;6.18;;;;;;;14.69;63.22;99506.91;5030184;28;20398;-22
2021/05/06 02:09:13;;;;;;;9.32;5.93;;;;;;;15.01;63.13;99500.63;5029980;28;20064;-22
2021/05/06 02:11:38;;;;;;;10.25;5.90;;;;;;;14.64;64.21;99496.13;5028714;28;20107;-22
2021/05/06 02:14:06;;;;;;;11.25;6.35;;;;;;;14.68;63.56;99499.91;5030098;28;20486;-22
2021/05/06 02:16:37;;;;;;;8.25;5.50;;;;;;;14.39;64.34;99502.91;5029891;28;20409;-22
2021/05/06 02:19:04;;;;;;;8.85;5.32;;;;;;;14.50;64.91;99508.34;5029924;28;20037;-22
2021/05/06 02:21:30;;;;;;;8.38;5.32;;;;;;;14.57;63.78;99514.34;5029724;28;20033;-22
2021/05/06 02:23:56;;;;;;;8.98;5.28;;;;;;;14.27;65.01;99526.44;5029717;28;20505;-22
2021/05/06 02:26:21;;;;;;;9.35;5.72;;;;;;;14.33;64.33;99517.34;5029798;28;20414;-22
2021/05/06 02:28:46;;;;;;;8.60;5.20;;;;;;;14.81;63.88;99506.69;5029750;28;20030;-23
2021/05/06 02:31:14;;;;;;;6.50;4.95;;;;;;;14.75;64.42;99505.03;5029575;28;20034;-22
2021/05/06 02:33:43;;;;;;;8.30;5.47;;;;;;;14.60;64.00;99505.75;5029620;28;20136;-22
2021/05/06 02:36:09;;;;;;;8.90;5.85;;;;;;;14.46;63.93;99490.09;5029564;28;20074;-22
2021/05/06 02:38:35;;;;;;;9.40;5.70;;;;;;;14.97;63.44;99499.53;5029421;28;20030;-22
2021/05/06 02:41:00;;;;;;;10.95;5.45;;;;;;;14.40;64.34;99507.19;5029842;28;20048;-21
2021/05/06 02:43:26;;;;;;;9.68;5.40;;;;;;;14.40;64.87;99499.16;5029485;28;20409;-22
2021/05/06 02:45:51;;;;;;;9.35;6.00;;;;;;;14.74;62.93;99512.28;5029614;28;20066;-22
2021/05/06 02:48:17;;;;;;;8.85;5.63;;;;;;;14.47;64.56;99521.22;5027898;28;20033;-21
2021/05/06 02:50:47;;;;;;;10.07;6.03;;;;;;;14.27;64.27;99508.47;5029778;28;20464;-19
2021/05/06 02:53:16;;;;;;;13.05;6.40;;;;;;;14.26;64.73;99504.19;5029337;28;20028;-23
2021/05/06 02:56:02;;;;;;;9.50;5.88;;;;;;;14.47;64.49;99513.16;5029328;28;20034;-22
2021/05/06 03:03:45;;;;;;;11.20;5.88;;;;;;;14.05;65.28;99516.59;5029530;28;20056;-22
2021/05/06 03:06:15;;;;;;;10.35;6.63;;;;;;;14.32;63.89;99515.72;5029079;28;20482;-21
2021/05/06 03:08:43;;;;;;;9.63;6.75;;;;;;;14.38;63.80;99533.47;5029063;28;20069;-23
2021/05/06 03:24:27;;;;;;;25.67;7.85;;;;;;;14.63;63.04;99545.53;5028563;28;20104;-19
2021/05/06 03:26:53;;;;;;;14.18;7.28;;;;;;;14.60;62.34;99549.50;5028673;28;20409;-23
2021/05/06 03:29:28;;;;;;;11.02;7.53;;;;;;;14.71;62.26;99550.41;5028643;28;20925;-22
2021/05/06 03:42:59;;;;;;;10.52;7.10;;;;;;;13.86;65.43;99567.09;5028433;28;20036;-19
2021/05/06 04:18:04;;;;;;;13.00;9.20;;;;;;;14.08;66.25;99630.59;5034305;28;20052;-22
2021/05/06 04:31:05;;;;;;;14.35;9.15;;;;;;;14.81;65.20;99673.13;5027793;28;20080;-23
2021/05/06 04:36:38;;;;;;;11.32;7.45;;;;;;;14.68;64.88;99684.28;5027412;28;20191;-22
2021/05/06 04:39:08;;;;;;;13.52;7.30;;;;;;;14.78;64.68;99689.75;5027423;28;20040;-22
2021/05/06 04:41:58;;;;;;;11.07;7.97;;;;;;;15.04;63.71;99686.19;5027697;28;20068;-22
2021/05/06 04:58:28;;;;;;;16.08;9.93;;;;;;;15.98;63.52;99699.09;5029555;28;20029;-22
2021/05/06 05:05:55;;;;;;;18.48;10.35;;;;;;;16.35;62.64;99712.38;5039605;28;20060;-23
2021/05/06 05:08:21;;;;;;;13.07;8.57;;;;;;;16.49;61.40;99712.69;5030614;28;20029;-22
2021/05/06 05:11:05;;;;;;;11.45;8.63;;;;;;;16.39;61.85;99712.69;5030100;28;20099;-22
2021/05/06 05:13:42;;;;;;;13.10;8.35;;;;;;;16.71;61.18;99714.31;5030699;28;20037;-19
2021/05/06 05:23:53;;;;;;;25.52;7.82;;;;;;;17.09;58.56;99720.31;5031132;28;20015;-22
2021/05/06 05:26:19;;;;;;;13.95;6.45;;;;;;;17.04;57.65;99713.00;5030957;28;20033;-23
2021/05/06 05:28:44;;;;;;;13.50;5.82;;;;;;;16.88;58.15;99704.16;5030874;28;20028;-22
2021/05/06 05:31:10;;;;;;;11.38;5.50;;;;;;;16.78;57.42;99720.28;5030760;28;20067;-22
2021/05/06 05:33:48;;;;;;;12.05;6.00;;;;;;;16.82;58.03;99727.56;5030817;28;20037;-22
2021/05/06 05:41:48;;;;;;;7.97;5.45;;;;;;;17.35;58.40;99739.97;5039294;28;20125;-21
2021/05/06 05:55:31;;;;;;;10.77;5.18;;;;;;;17.56;57.65;99738.81;5026843;28;20096;-19
2021/05/06 05:57:57;;;;;;;8.00;5.25;;;;;;;17.62;56.22;99735.03;5036176;28;20220;-21
2021/05/06 06:00:22;;;;;;;9.50;4.82;;;;;;;17.89;56.81;99755.47;5029053;28;20037;-22
2021/05/06 06:02:48;;;;;;;7.65;4.30;;;;;;;18.06;55.03;99765.94;5029277;28;20095;-22
2021/05/06 06:05:14;;;;;;;8.93;4.70;;;;;;;17.96;55.99;99750.63;5029093;28;20094;-22
2021/05/06 06:07:39;;;;;;;7.95;5.18;;;;;;;17.86;54.81;99747.97;5028838;28;20032;-22
2021/05/06 06:10:05;;;;;;;10.95;4.68;;;;;;;18.01;55.20;99742.50;5029165;28;20405;-22
2021/05/06 06:12:31;;;;;;;10.73;4.10;;;;;;;18.16;55.29;99738.09;5028659;28;20025;-21
2021/05/06 06:15:01;;;;;;;8.20;4.22;;;;;;;18.80;54.96;99756.13;5029039;28;20037;-22
2021/05/06 06:17:28;;;;;;;9.90;4.05;;;;;;;19.17;52.64;99743.16;5029087;28;20021;-21
2021/05/06 06:19:57;;;;;;;7.82;4.13;;;;;;;19.45;52.47;99752.34;5029075;28;20107;-22
2021/05/06 06:22:22;;;;;;;11.52;4.25;;;;;;;19.60;54.09;99765.72;5028571;28;20022;-22
2021/05/06 06:24:48;;;;;;;8.32;3.67;;;;;;;19.78;50.77;99741.78;5028797;28;20038;-21
2021/05/06 06:27:14;;;;;;;10.82;5.68;;;;;;;19.88;51.79;99760.59;5028847;28;20087;-22
2021/05/06 06:29:40;;;;;;;11.20;3.78;;;;;;;19.79;51.21;99773.13;5028553;28;20034;-22
2021/05/06 06:32:09;;;;;;;8.75;3.58;;;;;;;19.72;51.03;99746.44;5028793;28;20036;-21
2021/05/06 06:34:35;;;;;;;13.52;3.97;;;;;;;19.84;48.24;99763.06;5028647;28;20025;-22
2021/05/06 06:37:00;;;;;;;5.18;2.70;;;;;;;20.12;47.99;99759.75;5028840;28;20044;-22
2021/05/06 06:39:27;;;;;;;10.43;3.17;;;;;;;20.37;46.96;99762.16;5028660;28;20037;-22
2021/05/06 06:41:53;;;;;;;7.55;3.22;;;;;;;20.36;47.54;99760.53;5028481;28;20033;-22
2021/05/06 06:44:22;;;;;;;6.35;2.63;;;;;;;20.39;47.48;99748.31;5028219;28;20055;-21
2021/05/06 06:47:00;;;;;;;6.55;3.17;;;;;;;20.75;46.37;99755.97;5028438;28;20398;-21
2021/05/06 06:49:33;;;;;;;6.35;2.03;;;;;;;21.20;42.57;99756.31;4999724;28;829066;-21
2021/05/06 06:51:59;;;;;;;3.83;1.90;;;;;;;21.20;43.28;99735.44;5029572;28;20053;-22
2021/05/06 06:54:26;;;;;;;8.30;2.60;;;;;;;21.29;42.32;99754.56;5029057;28;20112;-21
2021/05/06 06:56:52;;;;;;;5.47;2.13;;;;;;;21.01;44.57;99753.66;5029313;28;20060;-21
2021/05/06 06:59:17;;;;;;;6.22;2.20;;;;;;;20.92;42.98;99750.00;5029535;28;20502;-21
2021/05/06 07:01:43;;;;;;;9.20;3.45;;;;;;;20.95;43.03;99733.16;5029316;28;20045;-22
2021/05/06 07:04:09;;;;;;;5.78;1.95;;;;;;;21.24;41.29;99750.00;5029391;28;20040;-21
2021/05/06 07:06:35;;;;;;;3.70;2.08;;;;;;;21.54;41.71;99744.38;5028914;28;20033;-20
2021/05/06 07:09:00;;;;;;;7.53;2.40;;;;;;;21.96;39.35;99754.13;5029312;28;20037;-20
2021/05/06 07:11:26;;;;;;;5.65;2.00;;;;;;;22.06;41.69;99745.78;5029232;28;20029;-22
2021/05/06 07:13:51;;;;;;;6.93;2.10;;;;;;;21.87;39.14;99755.97;5029617;28;20033;-21
2021/05/06 07:16:17;;;;;;;6.63;2.90;;;;;;;21.91;39.75;99756.97;5029086;28;20029;-21
2021/05/06 07:18:43;;;;;;;7.68;2.55;;;;;;;21.96;39.50;99766.91;5028738;28;20029;-22
2021/05/06 07:21:08;;;;;;;5.13;1.80;;;;;;;21.67;38.84;99757.16;5028319;28;20026;-21
2021/05/06 07:23:37;;;;;;;5.95;2.20;;;;;;;21.95;38.96;99768.03;5028716;28;20044;-21
2021/05/06 07:26:02;;;;;;;6.13;2.20;;;;;;;22.24;38.99;99767.72;5028760;28;20033;-22
2021/05/06 07:28:32;;;;;;;5.28;2.00;;;;;;;22.33;38.61;99771.34;5028686;28;20033;-21
2021/05/06 07:31:00;;;;;;;5.93;2.25;;;;;;;22.57;38.15;99775.72;5028360;28;20128;-22
2021/05/06 07:33:26;;;;;;;6.25;2.20;;;;;;;22.24;37.64;99768.53;5028627;28;20033;-21
2021/05/06 07:35:51;;;;;;;7.00;2.28;;;;;;;22.35;38.59;99769.13;5028715;28;20485;-28
2021/05/06 07:38:18;;;;;;;6.57;2.50;;;;;;;22.38;37.71;99765.00;5028130;28;20025;-21
2021/05/06 07:40:43;;;;;;;4.22;2.13;;;;;;;22.27;37.13;99764.38;5027187;28;20091;-22
2021/05/06 07:43:10;;;;;;;6.75;2.42;;;;;;;22.73;37.11;99763.38;5028629;28;20025;-21
2021/05/06 07:45:35;;;;;;;7.00;2.10;;;;;;;22.98;36.52;99788.38;5028568;28;20045;-21
2021/05/06 07:48:01;;;;;;;8.45;2.03;;;;;;;23.05;37.27;99792.28;5028359;28;20766;-21
2021/05/06 07:50:27;;;;;;;3.25;1.80;;;;;;;22.91;34.00;99788.00;5027883;28;20056;-21
2021/05/06 07:52:54;;;;;;;5.50;1.90;;;;;;;23.24;37.03;99788.59;5028093;28;20490;-21
2021/05/06 07:55:20;;;;;;;;;;;;;;;23.11;36.68;99790.25;5028881;28;20045;-21
2021/05/06 07:57:46;;;;;;;4.85;2.00;;;;;;;23.29;37.20;99793.09;5028306;28;19913;-21
2021/05/06 08:00:13;;;;;;;5.85;2.30;;;;;;;23.04;37.67;99798.03;5028178;28;20037;-21
2021/05/06 08:02:40;;;;;;;7.18;2.20;;;;;;;23.45;37.59;99795.09;5028436;28;20124;-21
2021/05/06 08:05:07;;;;;;;9.67;4.47;;;;;;;23.49;36.95;99798.00;5028394;28;20098;-21
2021/05/06 08:07:32;;;;;;;4.55;2.30;;;;;;;23.94;35.97;99806.09;5028008;28;20136;-21
2021/05/06 08:09:57;;;;;;;5.10;2.03;;;;;;;24.10;35.17;99797.50;5028295;28;20478;-21
2021/05/06 08:12:24;;;;;;;4.93;1.95;;;;;;;23.91;36.75;99801.28;5027683;28;20087;-21
2021/05/06 08:14:52;;;;;;;5.57;2.33;;;;;;;24.11;37.45;99785.47;5028206;28;20075;-21
2021/05/06 08:17:17;;;;;;;6.47;1.98;;;;;;;24.36;36.89;99790.19;5027910;28;20029;-20
2021/05/06 08:19:42;;;;;;;4.88;1.95;;;;;;;24.36;36.73;99795.66;5026706;28;20037;-19
2021/05/06 08:22:08;;;;;;;4.88;2.00;;;;;;;24.76;33.11;99803.72;5028020;28;20061;-22
2021/05/06 08:24:34;;;;;;;6.15;2.00;;;;;;;24.69;36.64;99811.59;5027767;28;20424;-21
2021/05/06 08:26:59;;;;;;;6.93;2.17;;;;;;;24.59;35.06;99811.91;5027648;28;20502;-21
2021/05/06 08:29:25;;;;;;;5.05;1.70;;;;;;;24.97;35.69;99808.56;5027768;28;20041;-21
2021/05/06 08:31:50;;;;;;;7.80;2.70;;;;;;;25.35;33.86;99802.44;5032845;28;20090;-21
2021/05/06 08:34:16;;;;;;;5.57;2.17;;;;;;;25.03;35.06;99813.53;5037437;28;20041;-22
2021/05/06 08:36:41;;;;;;;5.22;2.20;;;;;;;24.92;32.50;99803.28;5027289;28;20041;-21
2021/05/06 08:39:07;;;;;;;7.78;2.28;;;;;;;25.07;34.48;99808.25;5034062;28;20033;-22
2021/05/06 08:41:33;;;;;;;8.82;2.33;;;;;;;24.91;33.77;99790.75;5027808;28;20390;-21
2021/05/06 08:44:00;;;;;;;7.13;2.60;;;;;;;25.28;32.92;99813.06;5026409;28;20106;-22
2021/05/06 08:46:36;;;;;;;5.57;1.98;;;;;;;25.23;32.49;99806.66;5010150;28;20064;-22
2021/05/06 08:49:03;;;;;;;8.10;2.30;;;;;;;25.49;33.77;99821.38;5026976;28;20052;-21
2021/05/06 08:51:29;;;;;;;6.88;2.63;;;;;;;24.95;33.09;99794.47;5027541;28;20029;-21
2021/05/06 08:53:54;;;;;;;3.90;1.70;;;;;;;25.16;32.53;99810.97;5029492;28;20489;-21
2021/05/06 08:56:20;;;;;;;5.85;2.03;;;;;;;25.26;31.61;99811.44;5025370;28;20033;-21
2021/05/06 08:58:45;;;;;;;5.85;2.00;;;;;;;25.52;33.48;99807.06;5030352;28;20052;-21
2021/05/06 09:01:11;;;;;;;5.07;1.75;;;;;;;25.96;32.16;99800.34;5030708;28;20036;-21
2021/05/06 09:03:36;;;;;;;8.48;1.92;;;;;;;26.03;32.72;99806.09;5045879;28;20493;-21
2021/05/06 09:06:20;;;;;;;5.15;1.90;;;;;;;26.25;33.49;99796.84;5045466;28;20024;-22
2021/05/06 09:08:49;;;;;;;4.32;1.52;;;;;;;26.34;31.61;99799.50;5028407;28;20045;-21
2021/05/06 09:11:14;;;;;;;5.32;1.90;;;;;;;25.82;31.30;99775.94;5027313;28;20030;-21
2021/05/06 09:13:40;;;;;;;5.72;1.70;;;;;;;26.41;31.07;99794.31;5026708;28;20111;-21
2021/05/06 09:16:06;;;;;;;4.32;2.28;;;;;;;26.16;31.56;99784.34;5041221;28;20036;-20
2021/05/06 09:18:44;;;;;;;3.63;1.98;;;;;;;26.61;31.57;99794.69;5046682;28;20037;-20
2021/05/06 09:21:29;;;;;;;3.90;1.75;;;;;;;26.65;32.72;99812.84;5047061;28;20028;-21
2021/05/06 09:24:25;;;;;;;4.03;2.20;;;;;;;26.51;31.17;99786.84;5046519;28;20028;-21
2021/05/06 09:27:00;;;;;;;4.93;2.13;;;;;;;26.15;31.41;99799.13;5035904;28;20094;-21
2021/05/06 09:29:34;;;;;;;5.43;1.67;;;;;;;26.26;30.29;99798.41;5038942;28;20033;-21
2021/05/06 09:32:08;;;;;;;8.90;2.25;;;;;;;26.49;31.94;99797.31;5043778;28;20025;-21
2021/05/06 09:34:40;;;;;;;7.65;1.90;;;;;;;26.72;28.67;99782.19;5038314;28;20042;-21
2021/05/06 09:37:08;;;;;;;5.88;1.83;;;;;;;26.52;28.92;99799.38;5027026;28;20040;-21
2021/05/06 09:39:35;;;;;;;10.35;2.03;;;;;;;26.32;28.91;99790.03;5027309;28;20504;-21
2021/05/06 09:42:10;;;;;;;7.22;2.28;;;;;;;26.08;28.15;99796.13;5027152;28;20529;-21
2021/05/06 09:44:54;;;;;;;8.65;2.88;;;;;;;26.50;30.63;99812.59;5030606;28;20042;-21
2021/05/06 09:47:20;;;;;;;21.88;9.60;;;;;;;26.78;29.38;99805.47;5030918;28;20498;-21
2021/05/06 09:49:46;;;;;;;9.88;4.13;;;;;;;26.47;27.44;99786.72;5030417;28;20057;-21
2021/05/06 09:52:11;;;;;;;6.20;2.00;;;;;;;26.59;26.00;99792.28;5030603;28;20061;-20
2021/05/06 09:54:51;;;;;;;11.32;2.92;;;;;;;26.69;28.32;99784.81;5030466;28;20456;-21
2021/05/06 09:57:30;;;;;;;13.13;2.58;;;;;;;26.05;27.70;99784.72;5029748;28;20059;-21
2021/05/06 10:00:18;;;;;;;15.63;7.35;;;;;;;26.89;27.80;99802.34;5028012;28;20021;-21
2021/05/06 10:02:44;;;;;;;6.85;3.30;;;;;;;26.40;25.77;99770.84;5027932;28;20096;-21
2021/05/06 10:05:11;;;;;;;6.55;3.05;;;;;;;26.78;26.86;99763.66;5028207;28;20033;-21
2021/05/06 10:07:36;;;;;;;6.60;2.78;;;;;;;26.45;26.89;99778.03;5030730;28;20040;-21
2021/05/06 10:10:09;;;;;;;18.65;11.57;;;;;;;26.63;27.84;99774.06;5045974;28;20037;-21
2021/05/06 10:12:35;;;;;;;5.90;3.30;;;;;;;26.93;26.88;99771.25;5037566;28;20477;-21
2021/05/06 10:15:02;;;;;;;14.03;4.80;;;;;;;27.40;27.01;99787.41;5030211;28;20037;-21
2021/05/06 10:17:28;;;;;;;9.30;4.00;;;;;;;27.05;25.42;99778.69;5033294;28;20271;-21
2021/05/06 10:19:54;;;;;;;11.68;5.60;;;;;;;27.27;29.02;99779.50;5050139;28;20025;-21
2021/05/06 10:22:21;;;;;;;7.38;2.35;;;;;;;27.51;24.43;99790.50;5048377;28;20033;-21
2021/05/06 10:24:47;;;;;;;3.97;1.33;;;;;;;27.12;24.84;99789.91;5045683;28;20079;-21
2021/05/06 10:27:20;;;;;;;5.43;1.45;;;;;;;27.10;23.63;99796.88;5030305;28;20049;-21
2021/05/06 10:29:46;;;;;;;3.28;1.50;;;;;;;26.96;25.91;99794.41;5030120;28;20056;-21
2021/05/06 10:32:14;;;;;;;4.15;1.33;;;;;;;27.12;23.63;99802.81;5029648;28;20030;-20
2021/05/06 10:34:42;;;;;;;5.72;1.50;;;;;;;27.08;23.63;99799.94;5029684;28;20120;-22
2021/05/06 10:37:08;;;;;;;2.80;1.40;;;;;;;27.73;25.30;99791.22;5029338;28;20047;-21
2021/05/06 10:39:37;;;;;;;3.47;1.70;;;;;;;27.91;23.66;99781.69;5028395;28;20111;-21
2021/05/06 10:42:31;;;;;;;6.85;2.65;;;;;;;28.51;23.72;99787.47;5029871;28;20092;-21
2021/05/06 10:45:12;;;;;;;18.08;3.08;;;;;;;29.25;22.15;99792.69;5028827;28;20383;-21
2021/05/06 10:47:38;;;;;;;6.40;1.70;;;;;;;28.76;24.88;99787.41;5028637;28;20061;-21
2021/05/06 10:50:14;;;;;;;5.45;1.30;;;;;;;29.33;22.44;99788.22;5028359;28;20134;-21
2021/05/06 10:52:41;;;;;;;2.47;1.13;;;;;;;28.87;23.84;99780.25;5029244;28;20109;-21
2021/05/06 10:55:09;;;;;;;2.90;1.13;;;;;;;29.20;22.81;99763.56;5028264;28;20183;-21
2021/05/06 10:57:35;;;;;;;10.70;1.98;;;;;;;29.18;22.63;99782.34;5028985;28;20037;-21
2021/05/06 11:00:01;;;;;;;5.50;1.20;;;;;;;28.74;25.02;99778.72;5031137;28;20040;-21
2021/05/06 11:02:44;;;;;;;6.93;2.72;;;;;;;29.39;22.74;99775.81;5043811;28;20374;-26
2021/05/06 11:05:16;;;;;;;5.15;1.40;;;;;;;30.01;23.54;99768.72;5039972;28;20088;-22
2021/05/06 11:07:42;;;;;;;9.52;4.15;;;;;;;29.49;22.27;99758.81;5028323;28;20551;-21
2021/05/06 11:10:08;;;;;;;31.52;16.60;;;;;;;29.39;23.44;99773.84;5029297;28;20037;-22
2021/05/06 11:12:36;;;;;;;38.33;20.45;;;;;;;29.94;23.37;99767.78;5037146;28;20018;-22
2021/05/06 11:15:02;;;;;;;20.75;12.25;;;;;;;29.96;23.08;99774.50;5036110;28;20025;-22
2021/05/06 11:17:40;;;;;;;11.70;6.22;;;;;;;28.92;24.25;99781.97;5038092;28;20028;-22
2021/05/06 11:20:14;;;;;;;14.50;8.18;;;;;;;29.24;23.13;99783.66;5036087;28;20504;-22
2021/05/06 11:22:46;;;;;;;15.68;7.05;;;;;;;29.38;23.39;99785.19;5037836;28;20025;-21
2021/05/06 11:27:56;;;;;;;2.38;1.35;;;;;;;29.39;22.15;99770.31;5048221;28;20412;-21
2021/05/06 11:30:43;;;;;;;23.00;9.20;;;;;;;29.19;24.27;99781.16;5048041;28;20501;-21
2021/05/06 11:33:20;;;;;;;10.40;4.32;;;;;;;29.90;23.39;99789.66;5048105;28;20025;-21
2021/05/06 11:36:24;;;;;;;8.60;2.92;;;;;;;29.58;23.39;99784.13;5047866;28;20052;-20
2021/05/06 11:38:52;;;;;;;6.97;3.83;;;;;;;30.04;25.67;99789.22;5036702;28;20140;-21
2021/05/06 11:41:18;;;;;;;10.18;3.67;;;;;;;30.76;23.48;99775.09;5035804;28;20044;-21
2021/05/06 11:43:49;;;;;;;12.10;4.47;;;;;;;30.41;23.84;99766.88;5037399;28;20714;-21
2021/05/06 11:46:17;;;;;;;13.85;5.47;;;;;;;30.38;21.49;99782.16;5036747;28;20033;-21
2021/05/06 11:48:47;;;;;;;9.30;3.33;;;;;;;30.19;23.32;99762.84;5035966;28;20036;-21
2021/05/06 11:51:34;;;;;;;5.63;1.70;;;;;;;31.07;20.60;99770.59;5035943;28;20036;-21
2021/05/06 11:54:17;;;;;;;19.60;9.27;;;;;;;30.73;22.83;99775.81;5044131;28;20025;-22
2021/05/06 11:56:55;;;;;;;8.93;3.28;;;;;;;30.55;22.74;99780.94;5033342;28;20255;-21
2021/05/06 11:59:25;;;;;;;6.05;2.10;;;;;;;31.28;22.20;99783.19;5035396;28;20412;-22
2021/05/06 12:01:51;;;;;;;6.00;2.40;;;;;;;32.16;21.18;99779.53;5035715;28;20075;-22
2021/05/06 12:04:27;;;;;;;9.43;1.98;;;;;;;32.32;19.65;99777.41;5034293;28;20112;-22
2021/05/06 12:06:54;;;;;;;5.45;1.40;;;;;;;31.76;20.03;99776.16;5035878;28;20057;-21
2021/05/06 12:09:23;;;;;;;5.60;1.90;;;;;;;30.57;19.33;99758.59;5035688;28;20075;-21
2021/05/06 12:11:49;;;;;;;9.45;2.30;;;;;;;31.49;20.60;99771.75;5035469;28;20018;-22
2021/05/06 12:14:14;;;;;;;4.22;1.40;;;;;;;30.16;20.86;99750.59;5028579;28;20088;-21
2021/05/06 12:16:40;;;;;;;4.03;1.48;;;;;;;30.36;20.65;99773.47;5027693;28;20556;-22
2021/05/06 12:19:12;;;;;;;4.18;1.40;;;;;;;30.50;20.17;99767.47;5027806;28;20025;-22
2021/05/06 12:21:39;;;;;;;6.18;2.10;;;;;;;31.09;19.86;99771.03;5027122;28;20025;-22
2021/05/06 12:24:05;;;;;;;5.25;2.10;;;;;;;32.08;19.54;99766.81;5027393;28;20040;-22
2021/05/06 12:26:31;;;;;;;9.10;2.30;;;;;;;32.60;19.60;99776.25;5033932;28;20112;-21
2021/05/06 12:28:57;;;;;;;4.43;1.67;;;;;;;32.06;21.09;99753.41;5031913;28;20116;-21
2021/05/06 12:31:22;;;;;;;12.73;3.25;;;;;;;32.16;20.27;99765.75;5040086;28;20029;-21
2021/05/06 12:33:48;;;;;;;5.47;1.73;;;;;;;32.25;19.74;99755.25;5046970;28;20041;-21
2021/05/06 12:36:14;;;;;;;10.57;2.15;;;;;;;32.35;19.80;99762.88;5046588;28;20906;-22
2021/05/06 12:38:40;;;;;;;9.02;3.45;;;;;;;31.32;20.31;99760.03;5040383;28;20478;-22
2021/05/06 12:41:07;;;;;;;5.82;2.13;;;;;;;30.54;21.65;99751.03;5035833;28;20029;-22
2021/05/06 12:43:34;;;;;;;5.05;2.67;;;;;;;30.44;22.59;99752.41;5034184;28;20032;-22
2021/05/06 12:46:07;;;;;;;5.07;1.80;;;;;;;31.00;23.15;99751.19;5035058;28;20028;-22
2021/05/06 12:48:42;;;;;;;7.80;1.98;;;;;;;32.02;20.58;99756.13;5032896;28;20117;-21
2021/05/06 12:51:08;;;;;;;2.97;1.73;;;;;;;31.30;20.98;99758.81;5038638;28;20099;-22
2021/05/06 12:53:34;;;;;;;3.58;1.45;;;;;;;32.54;20.46;99747.34;5039066;28;20021;-22
2021/05/06 12:56:00;;;;;;;4.18;1.63;;;;;;;32.74;19.92;99746.03;5039074;28;20021;-22
2021/05/06 12:58:27;;;;;;;7.05;1.85;;;;;;;32.49;20.95;99740.19;5038730;28;20025;-22
2021/05/06 13:00:53;;;;;;;6.60;2.42;;;;;;;31.39;22.20;99745.59;5038344;28;20143;-22
2021/05/06 13:03:20;;;;;;;6.47;2.20;;;;;;;31.57;21.91;99741.22;5037400;28;20111;-22
2021/05/06 13:05:49;;;;;;;5.88;2.17;;;;;;;31.84;23.42;99747.53;5035543;28;20120;-21
2021/05/06 13:08:14;;;;;;;6.00;2.08;;;;;;;32.16;21.85;99735.41;5043838;28;20029;-22
2021/05/06 13:10:46;;;;;;;2.50;1.40;;;;;;;32.69;19.95;99746.38;5047049;28;20039;-21
2021/05/06 13:13:38;;;;;;;5.25;1.83;;;;;;;32.65;19.06;99737.25;5045488;28;20695;-21
2021/05/06 13:16:04;;;;;;;4.47;1.50;;;;;;;32.39;20.66;99733.38;5046046;28;20049;-23
2021/05/06 13:18:30;;;;;;;5.30;1.70;;;;;;;32.82;19.95;99738.63;5041124;28;20032;-22
2021/05/06 13:20:55;;;;;;;4.65;1.73;;;;;;;32.46;20.28;99734.63;5044155;28;20025;-22
2021/05/06 13:23:35;;;;;;;3.75;1.70;;;;;;;31.95;21.68;99725.63;5041073;28;20463;-21
2021/05/06 13:26:05;;;;;;;2.85;1.60;;;;;;;32.30;21.29;99724.56;5050275;28;20433;-21
2021/05/06 13:28:34;;;;;;;4.32;1.85;;;;;;;32.53;22.05;99734.69;5034063;28;20033;-22
2021/05/06 13:31:20;;;;;;;5.25;2.00;;;;;;;33.06;21.95;99740.09;5030441;28;20079;-21
2021/05/06 13:33:46;;;;;;;4.00;1.65;;;;;;;33.37;19.78;99722.25;5030518;28;20033;-21
2021/05/06 13:36:16;;;;;;;5.60;1.75;;;;;;;33.05;19.57;99724.66;5030057;28;20033;-21
2021/05/06 13:38:52;;;;;;;3.53;1.45;;;;;;;33.67;20.25;99732.34;5040522;28;20040;-22
2021/05/06 13:41:25;;;;;;;6.05;1.70;;;;;;;33.72;19.21;99729.25;5043489;28;20040;-22
2021/05/06 13:43:51;;;;;;;7.95;3.70;;;;;;;34.01;19.64;99733.00;5037858;28;20068;-22
2021/05/06 13:46:17;;;;;;;5.43;1.77;;;;;;;33.71;19.44;99726.88;5037243;28;20051;-21
2021/05/06 13:48:43;;;;;;;6.32;2.25;;;;;;;32.74;20.30;99721.19;5036005;28;21137;-22
2021/05/06 13:51:09;;;;;;;3.33;1.50;;;;;;;32.74;19.76;99720.41;5036298;28;20054;-22
2021/05/06 13:53:39;;;;;;;3.33;1.40;;;;;;;33.20;17.28;99722.84;5038869;28;20075;-22
2021/05/06 13:56:05;;;;;;;3.15;1.33;;;;;;;31.92;17.35;99723.63;5040010;28;20092;-22
2021/05/06 13:58:30;;;;;;;4.38;1.55;;;;;;;32.66;19.19;99716.75;5031120;28;20457;-20
2021/05/06 14:00:56;;;;;;;5.15;1.65;;;;;;;32.53;19.00;99723.66;5032312;28;20034;-22
2021/05/06 14:03:22;;;;;;;5.68;1.55;;;;;;;31.98;18.86;99727.66;5038237;28;20021;-21
2021/05/06 14:05:47;;;;;;;3.65;1.50;;;;;;;32.32;19.52;99730.50;5046767;28;20528;-22
2021/05/06 14:08:14;;;;;;;2.53;1.73;;;;;;;31.83;19.33;99726.66;5049823;28;20025;-22
2021/05/06 14:10:43;;;;;;;7.85;1.83;;;;;;;31.09;22.33;99718.72;5049603;28;20459;-22
2021/05/06 14:13:09;;;;;;;4.15;1.50;;;;;;;32.18;19.49;99730.31;5049519;28;20120;-22
2021/05/06 14:15:34;;;;;;;6.05;2.05;;;;;;;33.03;18.33;99735.31;5049641;28;20436;-23
2021/05/06 14:18:00;;;;;;;11.60;2.63;;;;;;;33.57;18.25;99731.09;5049274;28;20094;-22
2021/05/06 14:20:25;;;;;;;5.15;1.80;;;;;;;34.06;18.90;99728.28;5049028;28;20413;-22
2021/05/06 14:22:51;;;;;;;5.38;1.90;;;;;;;34.08;15.98;99745.28;5049660;28;20033;-23
2021/05/06 14:25:17;;;;;;;5.50;1.60;;;;;;;34.22;17.44;99728.78;5049334;28;20029;-22
2021/05/06 14:27:42;;;;;;;3.55;1.33;;;;;;;34.28;15.40;99724.47;5049164;28;20035;-22
2021/05/06 14:30:08;;;;;;;3.60;1.30;;;;;;;33.94;16.14;99729.38;5049134;28;20559;-22
2021/05/06 14:32:34;;;;;;;4.68;1.63;;;;;;;33.85;16.42;99740.00;5049111;28;20033;-23
2021/05/06 14:34:59;;;;;;;2.75;0.98;;;;;;;33.07;16.43;99729.81;5049378;28;20456;-21
2021/05/06 14:37:25;;;;;;;2.25;0.73;;;;;;;32.59;15.03;99728.53;5048052;28;20037;-22
2021/05/06 14:39:50;;;;;;;2.85;0.88;;;;;;;31.88;16.73;99733.81;5049535;28;20432;-22
2021/05/06 14:42:17;;;;;;;61.72;6.10;;;;;;;32.22;18.56;99731.16;5049340;28;20029;-21
2021/05/06 14:44:43;;;;;;;7.65;2.50;;;;;;;31.79;17.74;99734.09;5049379;28;20029;-21
2021/05/06 14:47:09;;;;;;;3.03;1.20;;;;;;;31.39;17.08;99729.06;5044948;28;20052;-22
2021/05/06 14:49:34;;;;;;;6.47;1.40;;;;;;;31.75;16.62;99724.16;5049128;28;20052;-22
2021/05/06 14:52:00;;;;;;;2.40;1.05;;;;;;;32.07;16.61;99729.38;5048848;28;20029;-22
2021/05/06 14:54:25;;;;;;;7.88;1.48;;;;;;;32.37;15.69;99732.94;5043350;28;20032;-22
2021/05/06 14:56:51;;;;;;;2.08;0.98;;;;;;;32.24;15.58;99726.06;5029506;28;20048;-23